sensor_id;sensor_type;location;lat;lon;timestamp;P1;durP1;ratioP1;P2;durP2;ratioP2
6392;SDS011;3229;42.674;23.282;2023-10-08T00:02:22;7.60;;;4.93;;
6392;SDS011;3229;42.674;23.282;2023-10-08T00:04:51;11.03;;;5.07;;
6392;SDS011;3229;42.674;23.282;2023-10-08T00:07:19;5.60;;;4.50;;
6392;SDS011;3229;42.674;23.282;2023-10-08T00:09:48;7.80;;;4.80;;
6392;SDS011;3229;42.674;23.282;2023-10-08T00:12:16;8.67;;;4.30;;
6392;SDS011;3229;42.674;23.282;2023-10-08T00:14:43;9.20;;;4.57;;
6392;SDS011;3229;42.674;23.282;2023-10-08T00:17:11;8.83;;;4.43;;
6392;SDS011;3229;42.674;23.282;2023-10-08T00:19:39;6.33;;;4.20;;
6392;SDS011;3229;42.674;23.282;2023-10-08T00:22:08;9.90;;;4.30;;
6392;SDS011;3229;42.674;23.282;2023-10-08T00:24:35;6.30;;;4.13;;
6392;SDS011;3229;42.674;23.282;2023-10-08T00:27:06;7.27;;;5.20;;
6392;SDS011;3229;42.674;23.282;2023-10-08T00:29:33;7.90;;;4.30;;
6392;SDS011;3229;42.674;23.282;2023-10-08T00:32:04;8.43;;;4.10;;
6392;SDS011;3229;42.674;23.282;2023-10-08T00:34:38;6.43;;;3.80;;
6392;SDS011;3229;42.674;23.282;2023-10-08T00:37:08;5.97;;;3.90;;
6392;SDS011;3229;42.674;23.282;2023-10-08T00:39:36;8.43;;;3.97;;
6392;SDS011;3229;42.674;23.282;2023-10-08T00:42:05;7.17;;;5.00;;
6392;SDS011;3229;42.674;23.282;2023-10-08T00:44:33;7.23;;;3.90;;
6392;SDS011;3229;42.674;23.282;2023-10-08T00:47:06;6.43;;;4.40;;
6392;SDS011;3229;42.674;23.282;2023-10-08T00:49:37;6.97;;;4.27;;
6392;SDS011;3229;42.674;23.282;2023-10-08T00:52:29;8.37;;;4.90;;
6392;SDS011;3229;42.674;23.282;2023-10-08T00:55:05;8.83;;;4.90;;
6392;SDS011;3229;42.674;23.282;2023-10-08T00:57:46;6.20;;;5.03;;
6392;SDS011;3229;42.674;23.282;2023-10-08T01:00:15;7.80;;;4.73;;
6392;SDS011;3229;42.674;23.282;2023-10-08T01:02:46;10.00;;;5.97;;
6392;SDS011;3229;42.674;23.282;2023-10-08T01:05:27;7.53;;;4.43;;
6392;SDS011;3229;42.674;23.282;2023-10-08T01:08:11;9.30;;;5.30;;
6392;SDS011;3229;42.674;23.282;2023-10-08T01:10:43;7.33;;;4.10;;
6392;SDS011;3229;42.674;23.282;2023-10-08T01:13:12;9.40;;;5.20;;
6392;SDS011;3229;42.674;23.282;2023-10-08T01:15:41;9.83;;;5.47;;
6392;SDS011;3229;42.674;23.282;2023-10-08T01:18:10;8.83;;;4.50;;
6392;SDS011;3229;42.674;23.282;2023-10-08T01:20:42;7.07;;;4.80;;
6392;SDS011;3229;42.674;23.282;2023-10-08T01:23:18;9.33;;;5.77;;
6392;SDS011;3229;42.674;23.282;2023-10-08T01:25:47;7.63;;;5.27;;
6392;SDS011;3229;42.674;23.282;2023-10-08T01:28:17;8.97;;;4.50;;
6392;SDS011;3229;42.674;23.282;2023-10-08T01:30:50;12.33;;;5.50;;
6392;SDS011;3229;42.674;23.282;2023-10-08T01:33:19;7.53;;;4.90;;
6392;SDS011;3229;42.674;23.282;2023-10-08T01:35:53;8.43;;;5.20;;
6392;SDS011;3229;42.674;23.282;2023-10-08T01:38:21;10.83;;;5.30;;
6392;SDS011;3229;42.674;23.282;2023-10-08T01:40:49;7.87;;;4.60;;
6392;SDS011;3229;42.674;23.282;2023-10-08T01:43:16;10.17;;;5.83;;
6392;SDS011;3229;42.674;23.282;2023-10-08T01:45:44;8.40;;;5.33;;
6392;SDS011;3229;42.674;23.282;2023-10-08T01:48:15;7.37;;;5.43;;
6392;SDS011;3229;42.674;23.282;2023-10-08T01:50:45;8.07;;;5.40;;
6392;SDS011;3229;42.674;23.282;2023-10-08T01:53:13;10.27;;;4.93;;
6392;SDS011;3229;42.674;23.282;2023-10-08T01:55:42;10.43;;;5.40;;
6392;SDS011;3229;42.674;23.282;2023-10-08T01:58:16;10.17;;;5.17;;
6392;SDS011;3229;42.674;23.282;2023-10-08T02:00:44;9.37;;;4.67;;
6392;SDS011;3229;42.674;23.282;2023-10-08T02:03:12;10.70;;;5.30;;
6392;SDS011;3229;42.674;23.282;2023-10-08T02:05:40;7.93;;;4.60;;
6392;SDS011;3229;42.674;23.282;2023-10-08T02:08:08;7.97;;;5.10;;
6392;SDS011;3229;42.674;23.282;2023-10-08T02:10:37;7.73;;;5.07;;
6392;SDS011;3229;42.674;23.282;2023-10-08T02:13:06;9.43;;;5.83;;
6392;SDS011;3229;42.674;23.282;2023-10-08T02:15:34;7.77;;;4.83;;
6392;SDS011;3229;42.674;23.282;2023-10-08T02:18:02;11.73;;;5.37;;
6392;SDS011;3229;42.674;23.282;2023-10-08T02:20:29;9.20;;;5.40;;
6392;SDS011;3229;42.674;23.282;2023-10-08T02:22:57;11.27;;;5.57;;
6392;SDS011;3229;42.674;23.282;2023-10-08T02:25:25;9.57;;;6.30;;
6392;SDS011;3229;42.674;23.282;2023-10-08T02:27:52;7.10;;;5.20;;
6392;SDS011;3229;42.674;23.282;2023-10-08T02:30:21;7.57;;;5.20;;
6392;SDS011;3229;42.674;23.282;2023-10-08T02:32:47;11.83;;;5.30;;
6392;SDS011;3229;42.674;23.282;2023-10-08T02:35:15;7.80;;;4.83;;
6392;SDS011;3229;42.674;23.282;2023-10-08T02:37:42;8.77;;;5.47;;
6392;SDS011;3229;42.674;23.282;2023-10-08T02:40:11;8.77;;;5.50;;
6392;SDS011;3229;42.674;23.282;2023-10-08T02:42:44;9.17;;;5.07;;
6392;SDS011;3229;42.674;23.282;2023-10-08T02:45:14;7.43;;;5.53;;
6392;SDS011;3229;42.674;23.282;2023-10-08T02:47:43;7.37;;;5.40;;
6392;SDS011;3229;42.674;23.282;2023-10-08T02:50:11;9.97;;;5.43;;
6392;SDS011;3229;42.674;23.282;2023-10-08T02:52:42;8.37;;;5.10;;
6392;SDS011;3229;42.674;23.282;2023-10-08T02:55:10;7.73;;;5.37;;
6392;SDS011;3229;42.674;23.282;2023-10-08T02:57:48;8.00;;;5.00;;
6392;SDS011;3229;42.674;23.282;2023-10-08T03:00:17;7.50;;;5.20;;
6392;SDS011;3229;42.674;23.282;2023-10-08T03:02:47;8.43;;;5.37;;
6392;SDS011;3229;42.674;23.282;2023-10-08T03:05:14;7.80;;;5.37;;
6392;SDS011;3229;42.674;23.282;2023-10-08T03:07:43;7.20;;;4.93;;
6392;SDS011;3229;42.674;23.282;2023-10-08T03:10:09;8.13;;;5.10;;
6392;SDS011;3229;42.674;23.282;2023-10-08T03:12:44;9.07;;;4.63;;
6392;SDS011;3229;42.674;23.282;2023-10-08T03:15:12;9.10;;;5.40;;
6392;SDS011;3229;42.674;23.282;2023-10-08T03:17:55;7.73;;;5.10;;
6392;SDS011;3229;42.674;23.282;2023-10-08T03:20:33;11.40;;;5.27;;
6392;SDS011;3229;42.674;23.282;2023-10-08T03:23:07;6.50;;;5.07;;
6392;SDS011;3229;42.674;23.282;2023-10-08T03:25:49;6.17;;;4.43;;
6392;SDS011;3229;42.674;23.282;2023-10-08T03:28:21;9.37;;;4.63;;
6392;SDS011;3229;42.674;23.282;2023-10-08T03:30:50;9.07;;;5.03;;
6392;SDS011;3229;42.674;23.282;2023-10-08T03:33:22;7.57;;;5.57;;
6392;SDS011;3229;42.674;23.282;2023-10-08T03:35:49;10.10;;;5.17;;
6392;SDS011;3229;42.674;23.282;2023-10-08T03:38:18;8.20;;;4.73;;
6392;SDS011;3229;42.674;23.282;2023-10-08T03:40:53;7.37;;;5.03;;
6392;SDS011;3229;42.674;23.282;2023-10-08T03:43:22;8.63;;;5.60;;
6392;SDS011;3229;42.674;23.282;2023-10-08T03:45:59;7.30;;;4.97;;
6392;SDS011;3229;42.674;23.282;2023-10-08T03:48:32;8.40;;;4.93;;
6392;SDS011;3229;42.674;23.282;2023-10-08T03:51:02;7.17;;;5.23;;
6392;SDS011;3229;42.674;23.282;2023-10-08T03:53:37;11.40;;;5.10;;
6392;SDS011;3229;42.674;23.282;2023-10-08T03:56:22;10.70;;;4.30;;
6392;SDS011;3229;42.674;23.282;2023-10-08T03:58:49;6.37;;;4.47;;
6392;SDS011;3229;42.674;23.282;2023-10-08T04:01:19;7.70;;;4.63;;
6392;SDS011;3229;42.674;23.282;2023-10-08T04:03:48;8.73;;;4.93;;
6392;SDS011;3229;42.674;23.282;2023-10-08T04:06:28;8.60;;;5.30;;
6392;SDS011;3229;42.674;23.282;2023-10-08T04:09:03;9.80;;;5.20;;
6392;SDS011;3229;42.674;23.282;2023-10-08T04:11:49;14.43;;;5.27;;
6392;SDS011;3229;42.674;23.282;2023-10-08T04:14:19;8.50;;;5.30;;
6392;SDS011;3229;42.674;23.282;2023-10-08T04:16:46;9.93;;;5.33;;
6392;SDS011;3229;42.674;23.282;2023-10-08T04:19:18;11.17;;;5.43;;
6392;SDS011;3229;42.674;23.282;2023-10-08T04:21:46;8.03;;;5.43;;
6392;SDS011;3229;42.674;23.282;2023-10-08T04:24:19;9.90;;;4.60;;
6392;SDS011;3229;42.674;23.282;2023-10-08T04:26:53;13.10;;;4.90;;
6392;SDS011;3229;42.674;23.282;2023-10-08T04:29:22;11.07;;;5.53;;
6392;SDS011;3229;42.674;23.282;2023-10-08T04:31:49;8.37;;;4.83;;
6392;SDS011;3229;42.674;23.282;2023-10-08T04:34:27;10.30;;;5.70;;
6392;SDS011;3229;42.674;23.282;2023-10-08T04:36:55;12.97;;;5.83;;
6392;SDS011;3229;42.674;23.282;2023-10-08T04:39:26;8.10;;;4.53;;
6392;SDS011;3229;42.674;23.282;2023-10-08T04:41:57;8.17;;;4.77;;
6392;SDS011;3229;42.674;23.282;2023-10-08T04:44:38;9.27;;;5.27;;
6392;SDS011;3229;42.674;23.282;2023-10-08T04:47:06;11.50;;;5.77;;
6392;SDS011;3229;42.674;23.282;2023-10-08T04:49:36;7.27;;;5.53;;
6392;SDS011;3229;42.674;23.282;2023-10-08T04:52:10;11.80;;;5.80;;
6392;SDS011;3229;42.674;23.282;2023-10-08T04:54:40;9.70;;;5.20;;
6392;SDS011;3229;42.674;23.282;2023-10-08T04:57:16;7.57;;;5.27;;
6392;SDS011;3229;42.674;23.282;2023-10-08T04:59:47;10.73;;;4.93;;
6392;SDS011;3229;42.674;23.282;2023-10-08T05:02:15;8.30;;;5.43;;
6392;SDS011;3229;42.674;23.282;2023-10-08T05:04:49;12.77;;;5.30;;
6392;SDS011;3229;42.674;23.282;2023-10-08T05:07:33;9.47;;;5.60;;
6392;SDS011;3229;42.674;23.282;2023-10-08T05:10:14;8.67;;;5.33;;
6392;SDS011;3229;42.674;23.282;2023-10-08T05:13:10;11.23;;;5.43;;
6392;SDS011;3229;42.674;23.282;2023-10-08T05:15:55;10.43;;;5.47;;
6392;SDS011;3229;42.674;23.282;2023-10-08T05:18:37;10.43;;;5.20;;
6392;SDS011;3229;42.674;23.282;2023-10-08T05:21:39;10.27;;;5.33;;
6392;SDS011;3229;42.674;23.282;2023-10-08T05:24:27;7.90;;;5.10;;
6392;SDS011;3229;42.674;23.282;2023-10-08T05:27:03;8.97;;;5.47;;
6392;SDS011;3229;42.674;23.282;2023-10-08T05:30:04;14.17;;;5.37;;
6392;SDS011;3229;42.674;23.282;2023-10-08T05:32:52;11.00;;;5.80;;
6392;SDS011;3229;42.674;23.282;2023-10-08T05:35:38;7.67;;;5.67;;
6392;SDS011;3229;42.674;23.282;2023-10-08T05:38:14;8.80;;;5.27;;
6392;SDS011;3229;42.674;23.282;2023-10-08T05:40:47;8.90;;;5.70;;
6392;SDS011;3229;42.674;23.282;2023-10-08T05:43:31;14.30;;;5.20;;
6392;SDS011;3229;42.674;23.282;2023-10-08T05:46:17;9.63;;;5.83;;
6392;SDS011;3229;42.674;23.282;2023-10-08T05:49:00;11.73;;;5.43;;
6392;SDS011;3229;42.674;23.282;2023-10-08T05:51:29;13.50;;;5.87;;
6392;SDS011;3229;42.674;23.282;2023-10-08T05:54:11;9.00;;;5.90;;
6392;SDS011;3229;42.674;23.282;2023-10-08T05:56:50;10.17;;;6.23;;
6392;SDS011;3229;42.674;23.282;2023-10-08T05:59:31;8.30;;;6.20;;
6392;SDS011;3229;42.674;23.282;2023-10-08T06:02:05;9.87;;;5.83;;
6392;SDS011;3229;42.674;23.282;2023-10-08T06:04:51;8.27;;;6.00;;
6392;SDS011;3229;42.674;23.282;2023-10-08T06:07:35;10.50;;;6.37;;
6392;SDS011;3229;42.674;23.282;2023-10-08T06:10:13;12.63;;;6.30;;
6392;SDS011;3229;42.674;23.282;2023-10-08T06:13:00;11.70;;;6.57;;
6392;SDS011;3229;42.674;23.282;2023-10-08T06:15:35;12.23;;;6.57;;
6392;SDS011;3229;42.674;23.282;2023-10-08T06:18:10;12.10;;;6.77;;
6392;SDS011;3229;42.674;23.282;2023-10-08T06:20:39;14.20;;;5.53;;
6392;SDS011;3229;42.674;23.282;2023-10-08T06:23:08;10.00;;;6.60;;
6392;SDS011;3229;42.674;23.282;2023-10-08T06:25:37;10.40;;;6.13;;
6392;SDS011;3229;42.674;23.282;2023-10-08T06:28:10;9.73;;;5.43;;
6392;SDS011;3229;42.674;23.282;2023-10-08T06:30:39;9.37;;;5.70;;
6392;SDS011;3229;42.674;23.282;2023-10-08T06:33:07;16.30;;;6.07;;
6392;SDS011;3229;42.674;23.282;2023-10-08T06:35:35;17.33;;;7.87;;
6392;SDS011;3229;42.674;23.282;2023-10-08T06:38:02;16.57;;;6.80;;
6392;SDS011;3229;42.674;23.282;2023-10-08T06:40:32;9.43;;;5.63;;
6392;SDS011;3229;42.674;23.282;2023-10-08T06:43:08;12.40;;;6.17;;
6392;SDS011;3229;42.674;23.282;2023-10-08T06:45:42;13.77;;;6.67;;
6392;SDS011;3229;42.674;23.282;2023-10-08T06:48:11;13.30;;;6.83;;
6392;SDS011;3229;42.674;23.282;2023-10-08T06:50:45;14.23;;;6.50;;
6392;SDS011;3229;42.674;23.282;2023-10-08T06:53:13;17.60;;;6.93;;
6392;SDS011;3229;42.674;23.282;2023-10-08T06:55:40;16.70;;;6.87;;
6392;SDS011;3229;42.674;23.282;2023-10-08T06:58:08;12.13;;;6.83;;
6392;SDS011;3229;42.674;23.282;2023-10-08T07:00:36;15.47;;;7.30;;
6392;SDS011;3229;42.674;23.282;2023-10-08T07:03:05;17.17;;;7.17;;
6392;SDS011;3229;42.674;23.282;2023-10-08T07:05:35;17.33;;;6.43;;
6392;SDS011;3229;42.674;23.282;2023-10-08T07:08:10;17.90;;;6.80;;
6392;SDS011;3229;42.674;23.282;2023-10-08T07:10:39;15.77;;;6.32;;
6392;SDS011;3229;42.674;23.282;2023-10-08T07:13:12;13.95;;;6.45;;
6392;SDS011;3229;42.674;23.282;2023-10-08T07:15:42;12.63;;;6.22;;
6392;SDS011;3229;42.674;23.282;2023-10-08T07:18:10;9.45;;;6.03;;
6392;SDS011;3229;42.674;23.282;2023-10-08T07:20:39;9.25;;;4.78;;
6392;SDS011;3229;42.674;23.282;2023-10-08T07:23:07;12.45;;;5.63;;
6392;SDS011;3229;42.674;23.282;2023-10-08T07:25:44;8.98;;;4.30;;
6392;SDS011;3229;42.674;23.282;2023-10-08T07:28:17;4.88;;;3.88;;
6392;SDS011;3229;42.674;23.282;2023-10-08T07:30:45;6.60;;;3.70;;
6392;SDS011;3229;42.674;23.282;2023-10-08T07:33:13;5.05;;;3.38;;
6392;SDS011;3229;42.674;23.282;2023-10-08T07:35:44;6.93;;;3.25;;
6392;SDS011;3229;42.674;23.282;2023-10-08T07:38:20;8.90;;;4.20;;
6392;SDS011;3229;42.674;23.282;2023-10-08T07:40:47;11.38;;;4.35;;
6392;SDS011;3229;42.674;23.282;2023-10-08T07:43:15;8.80;;;3.70;;
6392;SDS011;3229;42.674;23.282;2023-10-08T07:45:49;6.05;;;3.50;;
6392;SDS011;3229;42.674;23.282;2023-10-08T07:48:19;7.80;;;4.20;;
6392;SDS011;3229;42.674;23.282;2023-10-08T07:50:48;5.50;;;3.60;;
6392;SDS011;3229;42.674;23.282;2023-10-08T07:53:31;5.68;;;3.72;;
6392;SDS011;3229;42.674;23.282;2023-10-08T07:56:04;3.88;;;3.00;;
6392;SDS011;3229;42.674;23.282;2023-10-08T07:58:33;8.40;;;4.13;;
6392;SDS011;3229;42.674;23.282;2023-10-08T08:01:02;10.38;;;3.67;;
6392;SDS011;3229;42.674;23.282;2023-10-08T08:03:31;7.15;;;3.67;;
6392;SDS011;3229;42.674;23.282;2023-10-08T08:06:01;7.35;;;3.75;;
6392;SDS011;3229;42.674;23.282;2023-10-08T08:08:32;4.65;;;3.50;;
6392;SDS011;3229;42.674;23.282;2023-10-08T08:11:01;6.35;;;3.65;;
6392;SDS011;3229;42.674;23.282;2023-10-08T08:13:31;7.00;;;3.80;;
6392;SDS011;3229;42.674;23.282;2023-10-08T08:15:59;6.05;;;3.65;;
6392;SDS011;3229;42.674;23.282;2023-10-08T08:18:35;7.45;;;3.25;;
6392;SDS011;3229;42.674;23.282;2023-10-08T08:21:03;5.82;;;3.67;;
6392;SDS011;3229;42.674;23.282;2023-10-08T08:23:30;6.47;;;3.40;;
6392;SDS011;3229;42.674;23.282;2023-10-08T08:25:59;5.00;;;3.55;;
6392;SDS011;3229;42.674;23.282;2023-10-08T08:28:51;5.97;;;3.33;;
6392;SDS011;3229;42.674;23.282;2023-10-08T08:31:20;5.82;;;3.90;;
6392;SDS011;3229;42.674;23.282;2023-10-08T08:33:46;7.00;;;4.13;;
6392;SDS011;3229;42.674;23.282;2023-10-08T08:36:18;6.85;;;3.67;;
6392;SDS011;3229;42.674;23.282;2023-10-08T08:38:46;4.78;;;3.50;;
6392;SDS011;3229;42.674;23.282;2023-10-08T08:41:15;6.40;;;4.05;;
6392;SDS011;3229;42.674;23.282;2023-10-08T08:43:44;9.80;;;4.63;;
6392;SDS011;3229;42.674;23.282;2023-10-08T08:46:14;5.15;;;3.90;;
6392;SDS011;3229;42.674;23.282;2023-10-08T08:48:44;9.23;;;3.92;;
6392;SDS011;3229;42.674;23.282;2023-10-08T08:51:11;8.25;;;4.63;;
6392;SDS011;3229;42.674;23.282;2023-10-08T08:53:38;6.78;;;3.90;;
6392;SDS011;3229;42.674;23.282;2023-10-08T08:56:06;7.47;;;4.38;;
6392;SDS011;3229;42.674;23.282;2023-10-08T08:58:37;7.47;;;4.85;;
6392;SDS011;3229;42.674;23.282;2023-10-08T09:01:06;5.65;;;3.53;;
6392;SDS011;3229;42.674;23.282;2023-10-08T09:03:38;10.23;;;4.40;;
6392;SDS011;3229;42.674;23.282;2023-10-08T09:06:04;10.48;;;4.30;;
6392;SDS011;3229;42.674;23.282;2023-10-08T09:08:35;8.20;;;3.95;;
6392;SDS011;3229;42.674;23.282;2023-10-08T09:11:02;7.97;;;4.38;;
6392;SDS011;3229;42.674;23.282;2023-10-08T09:13:30;6.47;;;4.75;;
6392;SDS011;3229;42.674;23.282;2023-10-08T09:16:07;7.03;;;4.53;;
6392;SDS011;3229;42.674;23.282;2023-10-08T09:18:37;6.35;;;4.03;;
6392;SDS011;3229;42.674;23.282;2023-10-08T09:21:08;11.15;;;4.30;;
6392;SDS011;3229;42.674;23.282;2023-10-08T09:23:40;8.05;;;4.13;;
6392;SDS011;3229;42.674;23.282;2023-10-08T09:26:12;9.45;;;4.60;;
6392;SDS011;3229;42.674;23.282;2023-10-08T09:28:40;8.57;;;4.43;;
6392;SDS011;3229;42.674;23.282;2023-10-08T09:31:13;6.80;;;3.80;;
6392;SDS011;3229;42.674;23.282;2023-10-08T09:33:40;10.50;;;4.55;;
6392;SDS011;3229;42.674;23.282;2023-10-08T09:36:08;7.57;;;3.97;;
6392;SDS011;3229;42.674;23.282;2023-10-08T09:38:43;5.25;;;4.18;;
6392;SDS011;3229;42.674;23.282;2023-10-08T09:41:13;7.55;;;4.07;;
6392;SDS011;3229;42.674;23.282;2023-10-08T09:43:41;6.05;;;3.95;;
6392;SDS011;3229;42.674;23.282;2023-10-08T09:46:09;8.43;;;4.30;;
6392;SDS011;3229;42.674;23.282;2023-10-08T09:48:44;7.75;;;4.18;;
6392;SDS011;3229;42.674;23.282;2023-10-08T09:51:16;6.30;;;3.45;;
6392;SDS011;3229;42.674;23.282;2023-10-08T09:53:47;9.02;;;5.00;;
6392;SDS011;3229;42.674;23.282;2023-10-08T09:56:19;7.13;;;3.92;;
6392;SDS011;3229;42.674;23.282;2023-10-08T09:58:49;6.22;;;3.67;;
6392;SDS011;3229;42.674;23.282;2023-10-08T10:01:21;7.93;;;3.92;;
6392;SDS011;3229;42.674;23.282;2023-10-08T10:03:51;5.15;;;3.55;;
6392;SDS011;3229;42.674;23.282;2023-10-08T10:06:21;6.00;;;4.05;;
6392;SDS011;3229;42.674;23.282;2023-10-08T10:08:50;7.07;;;4.15;;
6392;SDS011;3229;42.674;23.282;2023-10-08T10:11:19;6.03;;;3.90;;
6392;SDS011;3229;42.674;23.282;2023-10-08T10:13:51;6.93;;;3.88;;
6392;SDS011;3229;42.674;23.282;2023-10-08T10:16:31;9.00;;;4.22;;
6392;SDS011;3229;42.674;23.282;2023-10-08T10:19:04;5.10;;;3.63;;
6392;SDS011;3229;42.674;23.282;2023-10-08T10:21:32;4.75;;;3.55;;
6392;SDS011;3229;42.674;23.282;2023-10-08T10:24:02;5.13;;;3.67;;
6392;SDS011;3229;42.674;23.282;2023-10-08T10:26:36;13.57;;;3.55;;
6392;SDS011;3229;42.674;23.282;2023-10-08T10:29:21;9.38;;;3.80;;
6392;SDS011;3229;42.674;23.282;2023-10-08T10:31:53;7.03;;;3.80;;
6392;SDS011;3229;42.674;23.282;2023-10-08T10:34:23;10.70;;;3.90;;
6392;SDS011;3229;42.674;23.282;2023-10-08T10:36:52;7.75;;;4.07;;
6392;SDS011;3229;42.674;23.282;2023-10-08T10:39:22;9.98;;;3.58;;
6392;SDS011;3229;42.674;23.282;2023-10-08T10:41:53;9.93;;;3.90;;
6392;SDS011;3229;42.674;23.282;2023-10-08T10:44:26;6.32;;;3.15;;
6392;SDS011;3229;42.674;23.282;2023-10-08T10:46:56;7.82;;;3.40;;
6392;SDS011;3229;42.674;23.282;2023-10-08T10:49:55;7.63;;;3.47;;
6392;SDS011;3229;42.674;23.282;2023-10-08T10:52:51;6.30;;;3.55;;
6392;SDS011;3229;42.674;23.282;2023-10-08T10:55:18;5.03;;;3.08;;
6392;SDS011;3229;42.674;23.282;2023-10-08T10:58:02;4.93;;;3.33;;
6392;SDS011;3229;42.674;23.282;2023-10-08T11:00:41;4.88;;;3.20;;
6392;SDS011;3229;42.674;23.282;2023-10-08T11:03:14;5.13;;;3.63;;
6392;SDS011;3229;42.674;23.282;2023-10-08T11:05:49;6.00;;;3.53;;
6392;SDS011;3229;42.674;23.282;2023-10-08T11:08:21;3.70;;;2.97;;
6392;SDS011;3229;42.674;23.282;2023-10-08T11:10:49;5.80;;;3.42;;
6392;SDS011;3229;42.674;23.282;2023-10-08T11:13:18;5.55;;;3.40;;
6392;SDS011;3229;42.674;23.282;2023-10-08T11:15:46;4.10;;;3.30;;
6392;SDS011;3229;42.674;23.282;2023-10-08T11:18:17;4.32;;;3.00;;
6392;SDS011;3229;42.674;23.282;2023-10-08T11:20:46;5.95;;;2.92;;
6392;SDS011;3229;42.674;23.282;2023-10-08T11:23:34;6.85;;;3.55;;
6392;SDS011;3229;42.674;23.282;2023-10-08T11:26:02;6.22;;;3.58;;
6392;SDS011;3229;42.674;23.282;2023-10-08T11:28:30;5.22;;;3.47;;
6392;SDS011;3229;42.674;23.282;2023-10-08T11:31:00;6.63;;;3.72;;
6392;SDS011;3229;42.674;23.282;2023-10-08T11:33:33;5.00;;;3.38;;
6392;SDS011;3229;42.674;23.282;2023-10-08T11:36:02;7.55;;;3.70;;
6392;SDS011;3229;42.674;23.282;2023-10-08T11:38:39;10.73;;;3.35;;
6392;SDS011;3229;42.674;23.282;2023-10-08T11:41:10;7.18;;;3.70;;
6392;SDS011;3229;42.674;23.282;2023-10-08T11:43:49;7.82;;;3.38;;
6392;SDS011;3229;42.674;23.282;2023-10-08T11:46:20;8.07;;;3.42;;
6392;SDS011;3229;42.674;23.282;2023-10-08T11:48:52;10.85;;;3.50;;
6392;SDS011;3229;42.674;23.282;2023-10-08T11:51:23;13.38;;;3.63;;
6392;SDS011;3229;42.674;23.282;2023-10-08T11:53:51;10.85;;;4.15;;
6392;SDS011;3229;42.674;23.282;2023-10-08T11:56:18;8.85;;;3.70;;
6392;SDS011;3229;42.674;23.282;2023-10-08T11:58:48;12.07;;;3.88;;
6392;SDS011;3229;42.674;23.282;2023-10-08T12:01:18;15.50;;;3.72;;
6392;SDS011;3229;42.674;23.282;2023-10-08T12:03:45;13.25;;;3.78;;
6392;SDS011;3229;42.674;23.282;2023-10-08T12:06:15;9.90;;;3.08;;
6392;SDS011;3229;42.674;23.282;2023-10-08T12:08:46;8.23;;;3.35;;
6392;SDS011;3229;42.674;23.282;2023-10-08T12:11:19;9.95;;;3.88;;
6392;SDS011;3229;42.674;23.282;2023-10-08T12:13:48;5.95;;;3.63;;
6392;SDS011;3229;42.674;23.282;2023-10-08T12:16:15;9.73;;;3.60;;
6392;SDS011;3229;42.674;23.282;2023-10-08T12:18:47;6.28;;;3.85;;
6392;SDS011;3229;42.674;23.282;2023-10-08T12:21:18;9.32;;;3.33;;
6392;SDS011;3229;42.674;23.282;2023-10-08T12:23:46;18.52;;;4.13;;
6392;SDS011;3229;42.674;23.282;2023-10-08T12:26:15;10.48;;;4.10;;
6392;SDS011;3229;42.674;23.282;2023-10-08T12:28:45;15.77;;;3.83;;
6392;SDS011;3229;42.674;23.282;2023-10-08T12:31:20;17.05;;;4.13;;
6392;SDS011;3229;42.674;23.282;2023-10-08T12:33:49;15.57;;;3.58;;
6392;SDS011;3229;42.674;23.282;2023-10-08T12:36:19;9.52;;;4.15;;
6392;SDS011;3229;42.674;23.282;2023-10-08T12:38:51;12.45;;;3.47;;
6392;SDS011;3229;42.674;23.282;2023-10-08T12:41:24;9.32;;;4.15;;
6392;SDS011;3229;42.674;23.282;2023-10-08T12:43:58;9.70;;;3.85;;
6392;SDS011;3229;42.674;23.282;2023-10-08T12:46:28;15.32;;;3.83;;
6392;SDS011;3229;42.674;23.282;2023-10-08T12:49:00;11.07;;;3.17;;
6392;SDS011;3229;42.674;23.282;2023-10-08T12:51:28;8.18;;;3.67;;
6392;SDS011;3229;42.674;23.282;2023-10-08T12:53:58;21.75;;;3.75;;
6392;SDS011;3229;42.674;23.282;2023-10-08T12:56:29;9.93;;;4.03;;
6392;SDS011;3229;42.674;23.282;2023-10-08T12:59:07;6.30;;;3.45;;
6392;SDS011;3229;42.674;23.282;2023-10-08T13:01:37;9.35;;;3.50;;
6392;SDS011;3229;42.674;23.282;2023-10-08T13:04:07;8.02;;;3.30;;
6392;SDS011;3229;42.674;23.282;2023-10-08T13:06:41;11.60;;;3.65;;
6392;SDS011;3229;42.674;23.282;2023-10-08T13:09:10;12.65;;;3.92;;
6392;SDS011;3229;42.674;23.282;2023-10-08T13:11:38;5.72;;;2.80;;
6392;SDS011;3229;42.674;23.282;2023-10-08T13:14:07;6.03;;;3.35;;
6392;SDS011;3229;42.674;23.282;2023-10-08T13:16:33;7.05;;;3.38;;
6392;SDS011;3229;42.674;23.282;2023-10-08T13:19:02;14.48;;;3.65;;
6392;SDS011;3229;42.674;23.282;2023-10-08T13:21:33;14.70;;;3.90;;
6392;SDS011;3229;42.674;23.282;2023-10-08T13:24:02;12.82;;;3.42;;
6392;SDS011;3229;42.674;23.282;2023-10-08T13:26:30;13.90;;;3.65;;
6392;SDS011;3229;42.674;23.282;2023-10-08T13:28:57;11.00;;;3.20;;
6392;SDS011;3229;42.674;23.282;2023-10-08T13:31:26;13.45;;;3.60;;
6392;SDS011;3229;42.674;23.282;2023-10-08T13:33:54;7.50;;;3.33;;
6392;SDS011;3229;42.674;23.282;2023-10-08T13:36:22;9.60;;;2.90;;
6392;SDS011;3229;42.674;23.282;2023-10-08T13:38:50;8.93;;;3.70;;
6392;SDS011;3229;42.674;23.282;2023-10-08T13:41:36;8.40;;;3.47;;
6392;SDS011;3229;42.674;23.282;2023-10-08T13:44:06;12.73;;;3.38;;
6392;SDS011;3229;42.674;23.282;2023-10-08T13:46:35;8.18;;;3.10;;
6392;SDS011;3229;42.674;23.282;2023-10-08T13:49:03;6.22;;;3.30;;
6392;SDS011;3229;42.674;23.282;2023-10-08T13:51:34;13.20;;;3.63;;
6392;SDS011;3229;42.674;23.282;2023-10-08T13:54:03;6.60;;;3.40;;
6392;SDS011;3229;42.674;23.282;2023-10-08T13:56:34;11.68;;;3.70;;
6392;SDS011;3229;42.674;23.282;2023-10-08T13:59:03;10.70;;;3.35;;
6392;SDS011;3229;42.674;23.282;2023-10-08T14:01:38;10.30;;;3.22;;
6392;SDS011;3229;42.674;23.282;2023-10-08T14:04:08;10.18;;;4.07;;
6392;SDS011;3229;42.674;23.282;2023-10-08T14:06:36;11.20;;;3.50;;
6392;SDS011;3229;42.674;23.282;2023-10-08T14:09:06;9.55;;;3.75;;
6392;SDS011;3229;42.674;23.282;2023-10-08T14:11:39;9.43;;;3.55;;
6392;SDS011;3229;42.674;23.282;2023-10-08T14:14:06;6.30;;;3.80;;
6392;SDS011;3229;42.674;23.282;2023-10-08T14:16:39;8.32;;;3.30;;
6392;SDS011;3229;42.674;23.282;2023-10-08T14:19:08;6.93;;;3.83;;
6392;SDS011;3229;42.674;23.282;2023-10-08T14:21:37;8.50;;;3.45;;
6392;SDS011;3229;42.674;23.282;2023-10-08T14:24:14;8.88;;;3.55;;
6392;SDS011;3229;42.674;23.282;2023-10-08T14:26:41;12.90;;;3.83;;
6392;SDS011;3229;42.674;23.282;2023-10-08T14:29:08;9.43;;;3.08;;
6392;SDS011;3229;42.674;23.282;2023-10-08T14:31:41;16.65;;;3.38;;
6392;SDS011;3229;42.674;23.282;2023-10-08T14:34:12;13.38;;;4.10;;
6392;SDS011;3229;42.674;23.282;2023-10-08T14:37:08;7.88;;;3.30;;
6392;SDS011;3229;42.674;23.282;2023-10-08T14:39:54;9.07;;;3.53;;
6392;SDS011;3229;42.674;23.282;2023-10-08T14:42:39;17.58;;;3.67;;
6392;SDS011;3229;42.674;23.282;2023-10-08T14:45:22;8.20;;;3.70;;
6392;SDS011;3229;42.674;23.282;2023-10-08T14:47:56;9.80;;;3.33;;
6392;SDS011;3229;42.674;23.282;2023-10-08T14:50:24;12.70;;;4.00;;
6392;SDS011;3229;42.674;23.282;2023-10-08T14:52:59;21.52;;;4.10;;
6392;SDS011;3229;42.674;23.282;2023-10-08T14:55:30;15.32;;;3.75;;
6392;SDS011;3229;42.674;23.282;2023-10-08T14:57:59;6.78;;;3.50;;
6392;SDS011;3229;42.674;23.282;2023-10-08T15:00:32;9.52;;;4.25;;
6392;SDS011;3229;42.674;23.282;2023-10-08T15:03:02;16.17;;;3.75;;
6392;SDS011;3229;42.674;23.282;2023-10-08T15:05:29;12.80;;;4.45;;
6392;SDS011;3229;42.674;23.282;2023-10-08T15:07:57;7.07;;;3.63;;
6392;SDS011;3229;42.674;23.282;2023-10-08T15:10:24;12.25;;;4.03;;
6392;SDS011;3229;42.674;23.282;2023-10-08T15:12:51;9.80;;;3.65;;
6392;SDS011;3229;42.674;23.282;2023-10-08T15:15:20;10.77;;;3.33;;
6392;SDS011;3229;42.674;23.282;2023-10-08T15:17:50;9.32;;;3.85;;
6392;SDS011;3229;42.674;23.282;2023-10-08T15:20:18;9.43;;;3.55;;
6392;SDS011;3229;42.674;23.282;2023-10-08T15:22:46;12.05;;;3.80;;
6392;SDS011;3229;42.674;23.282;2023-10-08T15:25:15;14.68;;;3.55;;
6392;SDS011;3229;42.674;23.282;2023-10-08T15:27:43;5.90;;;3.53;;